createdAt,value
2023-03-11T00:00:29.240Z,9.60
2023-03-11T00:02:59.671Z,9.50
2023-03-11T00:05:29.410Z,9.50
2023-03-11T00:07:57.802Z,9.50
2023-03-11T00:10:30.091Z,9.50
2023-03-11T00:12:59.074Z,9.40
2023-03-11T00:15:29.159Z,9.40
2023-03-11T00:17:58.043Z,9.40
2023-03-11T00:20:28.632Z,9.40
2023-03-11T00:22:57.691Z,9.40
2023-03-11T00:25:28.029Z,9.40
2023-03-11T00:27:56.314Z,9.40
2023-03-11T00:30:25.448Z,9.30
2023-03-11T00:32:58.467Z,9.30
2023-03-11T00:35:29.558Z,9.30
2023-03-11T00:37:58.576Z,9.30
2023-03-11T00:40:29.343Z,9.20
2023-03-11T00:42:58.541Z,8.90
2023-03-11T00:45:27.551Z,8.40
2023-03-11T00:47:57.913Z,8.10
2023-03-11T00:50:29.199Z,7.90
2023-03-11T00:52:57.589Z,7.80
2023-03-11T00:55:28.485Z,7.70
2023-03-11T00:57:58.741Z,7.70
2023-03-11T01:00:28.428Z,7.50
2023-03-11T01:02:59.673Z,7.60
2023-03-11T01:05:30.001Z,7.60
2023-03-11T01:07:58.765Z,7.60
2023-03-11T01:10:27.492Z,7.60
2023-03-11T01:12:56.041Z,7.60
2023-03-11T01:15:26.525Z,7.60
2023-03-11T01:17:54.766Z,7.60
2023-03-11T01:20:25.204Z,7.60
2023-03-11T01:22:56.439Z,7.60
2023-03-11T01:25:26.091Z,7.70
2023-03-11T01:27:54.263Z,7.70
2023-03-11T01:30:26.765Z,7.70
2023-03-11T01:32:56.291Z,7.70
2023-03-11T01:35:26.798Z,7.70
2023-03-11T01:37:55.247Z,7.70
2023-03-11T01:40:28.661Z,7.70
2023-03-11T01:42:59.912Z,7.70
2023-03-11T01:45:34.270Z,7.70
2023-03-11T01:48:02.575Z,7.70
2023-03-11T01:50:37.034Z,7.70
2023-03-11T01:53:05.788Z,7.70
2023-03-11T01:55:34.269Z,7.70
2023-03-11T01:58:06.053Z,7.60
2023-03-11T02:00:34.877Z,7.60
2023-03-11T02:03:07.709Z,7.60
2023-03-11T02:05:37.976Z,7.60
2023-03-11T02:08:06.922Z,7.60
2023-03-11T02:10:35.377Z,7.50
2023-03-11T02:13:05.147Z,7.40
2023-03-11T02:15:33.340Z,7.30
2023-03-11T02:18:04.594Z,7.10
2023-03-11T02:20:43.876Z,7.00
2023-03-11T02:23:14.447Z,6.90
2023-03-11T02:25:49.608Z,6.80
2023-03-11T02:28:21.086Z,6.70
2023-03-11T02:30:51.341Z,6.60
2023-03-11T02:33:21.177Z,6.50
2023-03-11T02:35:49.539Z,6.50
2023-03-11T02:38:17.729Z,6.30
2023-03-11T02:40:51.889Z,6.20
2023-03-11T02:43:26.438Z,6.20
2023-03-11T02:45:55.589Z,6.20
2023-03-11T02:48:24.622Z,6.10
2023-03-11T02:50:53.230Z,6.10
2023-03-11T02:53:21.457Z,6.00
2023-03-11T02:55:49.732Z,6.00
2023-03-11T02:58:18.037Z,5.90
2023-03-11T03:00:47.657Z,5.90
2023-03-11T03:03:16.171Z,5.90
2023-03-11T03:05:44.552Z,5.90
2023-03-11T03:08:12.809Z,5.90
2023-03-11T03:10:41.210Z,5.80
2023-03-11T03:13:12.553Z,5.80
2023-03-11T03:15:40.853Z,5.80
2023-03-11T03:18:10.900Z,5.70
2023-03-11T03:20:39.217Z,5.70
2023-03-11T03:23:07.698Z,5.70
2023-03-11T03:25:36.098Z,5.70
2023-03-11T03:28:04.448Z,5.70
2023-03-11T03:30:32.962Z,5.60
2023-03-11T03:33:01.524Z,5.60
2023-03-11T03:35:31.585Z,5.60
2023-03-11T03:38:00.127Z,5.60
2023-03-11T03:40:28.395Z,5.50
2023-03-11T03:42:56.574Z,5.50
2023-03-11T03:45:24.688Z,5.50
2023-03-11T03:47:52.918Z,5.50
2023-03-11T03:50:21.265Z,5.40
2023-03-11T03:52:51.118Z,5.40
2023-03-11T03:55:19.384Z,5.40
2023-03-11T03:57:47.608Z,5.40
2023-03-11T04:00:16.901Z,5.40
2023-03-11T04:02:45.086Z,5.40
2023-03-11T04:05:14.678Z,5.30
2023-03-11T04:07:45.670Z,5.30
2023-03-11T04:10:16.665Z,5.30
2023-03-11T04:12:44.960Z,5.20
2023-03-11T04:15:14.116Z,5.10
2023-03-11T04:17:42.507Z,5.00
2023-03-11T04:20:12.307Z,5.00
2023-03-11T04:22:40.439Z,4.90
2023-03-11T04:25:09.718Z,4.90
2023-03-11T04:27:42.708Z,4.80
2023-03-11T04:30:12.099Z,4.70
2023-03-11T04:32:40.361Z,4.70
2023-03-11T04:35:10.341Z,4.70
2023-03-11T04:37:38.540Z,4.70
2023-03-11T04:40:09.337Z,4.60
2023-03-11T04:42:39.611Z,4.60
2023-03-11T04:45:09.412Z,4.50
2023-03-11T04:47:37.694Z,4.50
2023-03-11T04:50:06.959Z,4.50
2023-03-11T04:52:35.173Z,4.40
2023-03-11T04:55:03.381Z,4.40
2023-03-11T04:57:31.728Z,4.40
2023-03-11T05:00:01.391Z,4.30
2023-03-11T05:02:29.410Z,4.30
2023-03-11T05:04:57.663Z,4.30
2023-03-11T05:07:25.907Z,4.30
2023-03-11T05:09:54.020Z,4.30
2023-03-11T05:12:22.367Z,4.30
2023-03-11T05:14:50.890Z,4.20
2023-03-11T05:17:20.640Z,4.20
2023-03-11T05:19:49.813Z,4.20
2023-03-11T05:22:17.973Z,4.10
2023-03-11T05:24:48.976Z,4.10
2023-03-11T05:27:21.422Z,4.10
2023-03-11T05:29:49.629Z,4.10
2023-03-11T05:32:19.373Z,4.10
2023-03-11T05:34:49.239Z,4.10
2023-03-11T05:37:17.506Z,4.10
2023-03-11T05:39:45.521Z,4.10
2023-03-11T05:42:13.496Z,4.10
2023-03-11T05:44:42.772Z,4.20
2023-03-11T05:47:11.099Z,4.10
2023-03-11T05:49:39.154Z,4.10
2023-03-11T05:52:08.542Z,4.20
2023-03-11T05:54:36.497Z,4.20
2023-03-11T05:57:04.898Z,4.30
2023-03-11T05:59:35.536Z,4.20
2023-03-11T06:02:03.773Z,4.20
2023-03-11T06:04:32.141Z,4.30
2023-03-11T06:07:00.365Z,4.30
2023-03-11T06:09:29.857Z,4.30
2023-03-11T06:11:57.841Z,4.30
2023-03-11T06:14:25.924Z,4.30
2023-03-11T06:16:54.204Z,4.40
2023-03-11T06:19:22.499Z,4.40
2023-03-11T06:21:50.538Z,4.40
2023-03-11T06:24:18.877Z,4.40
2023-03-11T06:26:52.214Z,4.40
2023-03-11T06:29:21.956Z,4.50
2023-03-11T06:31:50.136Z,4.50
2023-03-11T06:34:18.345Z,4.50
2023-03-11T06:36:46.421Z,4.50
2023-03-11T06:39:15.394Z,4.60
2023-03-11T06:41:43.587Z,4.60
2023-03-11T06:44:13.347Z,4.70
2023-03-11T06:46:41.576Z,4.70
2023-03-11T06:49:09.592Z,4.70
2023-03-11T06:51:37.658Z,4.80
2023-03-11T06:54:06.148Z,4.80
2023-03-11T06:56:34.141Z,4.80
2023-03-11T06:59:02.187Z,4.90
2023-03-11T07:01:32.897Z,4.80
2023-03-11T07:04:01.453Z,4.80
2023-03-11T07:06:30.238Z,4.80
2023-03-11T07:08:58.549Z,4.80
2023-03-11T07:11:27.428Z,4.90
2023-03-11T07:13:56.101Z,4.80
2023-03-11T07:16:25.318Z,4.80
2023-03-11T07:18:56.137Z,4.80
2023-03-11T07:21:24.778Z,4.80
2023-03-11T07:23:53.720Z,4.80
2023-03-11T07:26:21.892Z,4.90
2023-03-11T07:28:50.561Z,4.90
2023-03-11T07:31:19.867Z,4.90
2023-03-11T07:33:48.322Z,5.00
2023-03-11T07:36:18.664Z,5.00
2023-03-11T07:38:47.174Z,5.00
2023-03-11T07:41:16.235Z,5.10
2023-03-11T07:43:44.588Z,5.10
2023-03-11T07:46:14.042Z,5.10
2023-03-11T07:48:42.239Z,5.10
2023-03-11T07:51:12.090Z,5.20
2023-03-11T07:53:42.032Z,5.20
2023-03-11T07:56:11.111Z,5.20
2023-03-11T07:58:39.461Z,5.20
2023-03-11T08:01:08.859Z,5.20
2023-03-11T08:03:37.043Z,5.20
2023-03-11T08:06:05.554Z,5.30
2023-03-11T08:08:33.532Z,5.30
2023-03-11T08:11:06.504Z,5.40
2023-03-11T08:13:34.874Z,5.40
2023-03-11T08:16:04.346Z,5.50
2023-03-11T08:18:32.422Z,5.60
2023-03-11T08:21:00.489Z,5.60
2023-03-11T08:23:28.766Z,5.70
2023-03-11T08:25:56.737Z,5.80
2023-03-11T08:28:26.620Z,5.80
2023-03-11T08:30:54.621Z,5.90
2023-03-11T08:33:22.798Z,6.00
2023-03-11T08:35:50.900Z,6.00
2023-03-11T08:38:22.052Z,6.00
2023-03-11T08:40:50.007Z,6.10
2023-03-11T08:43:20.288Z,6.20
2023-03-11T08:45:50.374Z,6.30
2023-03-11T08:48:18.506Z,6.40
2023-03-11T08:50:53.953Z,6.60
2023-03-11T08:53:23.258Z,6.80
2023-03-11T08:55:51.871Z,6.80
2023-03-11T08:58:19.945Z,6.90
2023-03-11T09:00:49.434Z,7.00
2023-03-11T09:03:17.370Z,7.00
2023-03-11T09:05:45.369Z,7.00
2023-03-11T09:08:13.390Z,7.30
2023-03-11T09:10:41.442Z,7.50
2023-03-11T09:13:09.477Z,7.70
2023-03-11T09:15:38.894Z,8.00
2023-03-11T09:18:09.360Z,7.90
2023-03-11T09:20:39.866Z,7.80
2023-03-11T09:23:13.698Z,7.60
2023-03-11T09:25:41.924Z,7.20
2023-03-11T09:28:10.173Z,7.00
2023-03-11T09:30:38.388Z,7.00
2023-03-11T09:33:08.052Z,7.10
2023-03-11T09:35:36.458Z,6.90
2023-03-11T09:38:04.680Z,6.80
2023-03-11T09:40:47.234Z,6.70
2023-03-11T09:43:27.279Z,6.80
2023-03-11T09:46:03.087Z,6.60
2023-03-11T09:48:41.032Z,6.70
2023-03-11T09:51:13.650Z,6.80
2023-03-11T09:53:43.988Z,6.80
2023-03-11T09:56:15.054Z,6.70
2023-03-11T09:58:50.728Z,6.70
2023-03-11T10:01:22.510Z,6.80
2023-03-11T10:03:54.567Z,6.60
2023-03-11T10:06:24.760Z,6.40
2023-03-11T10:09:02.308Z,6.40
2023-03-11T10:11:47.038Z,6.50
2023-03-11T10:14:30.782Z,6.70
2023-03-11T10:17:06.721Z,6.80
2023-03-11T10:19:45.754Z,6.70
2023-03-11T10:22:20.107Z,6.60
2023-03-11T10:25:05.082Z,6.80
2023-03-11T10:27:41.825Z,6.80
2023-03-11T10:30:21.127Z,6.70
2023-03-11T10:32:55.604Z,6.70
2023-03-11T10:35:30.641Z,6.70
2023-03-11T10:38:04.720Z,6.80
2023-03-11T10:40:34.709Z,6.80
2023-03-11T10:43:05.727Z,6.80
2023-03-11T10:45:38.756Z,6.70
2023-03-11T10:48:11.122Z,6.40
2023-03-11T10:50:48.231Z,6.40
2023-03-11T10:53:18.044Z,6.40
2023-03-11T10:55:50.750Z,6.30
2023-03-11T10:58:21.166Z,6.50
2023-03-11T11:01:01.793Z,6.60
2023-03-11T11:03:30.809Z,6.40
2023-03-11T11:06:03.446Z,6.50
2023-03-11T11:08:31.677Z,6.60
2023-03-11T11:11:00.398Z,7.10
2023-03-11T11:13:30.338Z,7.40
2023-03-11T11:16:01.610Z,8.00
2023-03-11T11:18:31.193Z,8.80
2023-03-11T11:21:05.372Z,8.90
2023-03-11T11:23:38.488Z,9.20
2023-03-11T11:26:07.984Z,9.30
2023-03-11T11:28:37.623Z,9.40
2023-03-11T11:31:06.993Z,9.90
2023-03-11T11:33:43.148Z,10.40
2023-03-11T11:36:17.247Z,10.20
2023-03-11T11:38:46.011Z,9.20
2023-03-11T11:41:17.991Z,8.60
2023-03-11T11:43:51.741Z,8.20
2023-03-11T11:46:27.376Z,8.00
2023-03-11T11:49:06.967Z,7.70
2023-03-11T11:51:41.470Z,7.50
2023-03-11T11:54:18.433Z,7.30
2023-03-11T11:56:47.681Z,7.20
2023-03-11T11:59:20.021Z,7.20
2023-03-11T12:02:01.373Z,7.20
2023-03-11T12:04:48.330Z,7.20
2023-03-11T12:07:36.248Z,7.20
2023-03-11T12:10:23.333Z,7.20
2023-03-11T12:13:15.988Z,7.40
2023-03-11T12:15:49.043Z,7.40
2023-03-11T12:18:23.918Z,7.40
2023-03-11T12:20:56.355Z,7.30
2023-03-11T12:23:40.225Z,7.10
2023-03-11T12:26:18.709Z,7.10
2023-03-11T12:28:54.376Z,6.90
2023-03-11T12:31:24.594Z,6.90
2023-03-11T12:33:58.969Z,6.90
2023-03-11T12:36:32.035Z,6.80
2023-03-11T12:39:05.406Z,6.80
2023-03-11T12:41:39.819Z,6.80
2023-03-11T12:44:23.940Z,7.00
2023-03-11T12:47:18.586Z,7.00
2023-03-11T12:49:47.921Z,7.00
2023-03-11T12:52:27.899Z,6.90
2023-03-11T12:55:32.954Z,6.80
2023-03-11T12:58:31.672Z,6.70
2023-03-11T13:01:41.587Z,6.80
2023-03-11T13:04:42.285Z,6.80
2023-03-11T13:07:37.836Z,6.70
2023-03-11T13:10:15.145Z,6.60
2023-03-11T13:12:45.917Z,6.60
2023-03-11T13:15:37.932Z,6.60
2023-03-11T13:18:18.258Z,6.60
2023-03-11T13:20:57.692Z,6.70
2023-03-11T13:23:43.602Z,6.70
2023-03-11T13:26:35.796Z,6.80
2023-03-11T13:29:30.050Z,6.80
2023-03-11T13:32:14.456Z,6.80
2023-03-11T13:34:50.581Z,6.80
2023-03-11T13:37:28.491Z,6.80
2023-03-11T13:40:14.299Z,6.90
2023-03-11T13:42:47.039Z,6.90
2023-03-11T13:45:27.633Z,6.90
2023-03-11T13:48:03.125Z,6.70
2023-03-11T13:50:36.088Z,6.60
2023-03-11T13:53:09.754Z,6.60
2023-03-11T13:55:42.357Z,6.40
2023-03-11T13:58:18.213Z,6.20
2023-03-11T14:00:51.305Z,6.30
2023-03-11T14:03:24.067Z,6.40
2023-03-11T14:05:59.008Z,6.30
2023-03-11T14:08:29.090Z,6.10
2023-03-11T14:10:58.580Z,6.10
2023-03-11T14:13:30.741Z,6.10
2023-03-11T14:16:05.574Z,6.10
2023-03-11T14:18:38.364Z,6.10
2023-03-11T14:21:12.903Z,6.10
2023-03-11T14:23:44.936Z,6.00
2023-03-11T14:26:16.553Z,6.10
2023-03-11T14:28:48.344Z,6.10
2023-03-11T14:31:25.835Z,6.10
2023-03-11T14:34:04.753Z,6.20
2023-03-11T14:36:42.300Z,6.30
2023-03-11T14:39:25.710Z,6.40
2023-03-11T14:41:57.651Z,6.30
2023-03-11T14:44:27.435Z,6.30
2023-03-11T14:47:03.972Z,6.30
2023-03-11T14:49:34.241Z,6.30
2023-03-11T14:52:06.757Z,6.30
2023-03-11T14:54:37.721Z,6.30
2023-03-11T14:57:10.668Z,6.20
2023-03-11T14:59:40.240Z,6.20
2023-03-11T15:02:37.796Z,6.30
2023-03-11T15:05:17.045Z,6.20
2023-03-11T15:07:46.819Z,6.30
2023-03-11T15:10:15.779Z,6.30
2023-03-11T15:12:46.279Z,6.40
2023-03-11T15:15:25.849Z,6.30
2023-03-11T15:17:54.797Z,6.20
2023-03-11T15:20:33.751Z,6.10
2023-03-11T15:23:04.148Z,6.10
2023-03-11T15:25:36.097Z,5.90
2023-03-11T15:28:25.367Z,5.90
2023-03-11T15:31:13.818Z,5.90
2023-03-11T15:33:45.270Z,5.80
2023-03-11T15:36:32.772Z,5.70
2023-03-11T15:39:15.984Z,5.70
2023-03-11T15:41:45.119Z,5.60
2023-03-11T15:44:29.975Z,5.60
2023-03-11T15:46:59.709Z,5.60
2023-03-11T15:49:30.414Z,5.60
2023-03-11T15:52:02.290Z,5.60
2023-03-11T15:54:30.737Z,5.60
2023-03-11T15:57:01.101Z,5.60
2023-03-11T15:59:30.625Z,5.60
2023-03-11T16:01:59.606Z,5.60
2023-03-11T16:04:29.500Z,5.50
2023-03-11T16:07:07.418Z,5.50
2023-03-11T16:09:36.815Z,5.40
2023-03-11T16:12:15.210Z,5.30
2023-03-11T16:14:43.525Z,5.30
2023-03-11T16:17:14.598Z,5.30
2023-03-11T16:19:45.041Z,5.30
2023-03-11T16:22:19.285Z,5.30
2023-03-11T16:24:49.130Z,5.30
2023-03-11T16:27:19.028Z,5.20
2023-03-11T16:29:47.677Z,5.20
2023-03-11T16:32:16.087Z,5.10
2023-03-11T16:34:45.948Z,5.10
2023-03-11T16:37:17.207Z,5.10
2023-03-11T16:39:45.395Z,5.10
2023-03-11T16:42:13.680Z,5.10
2023-03-11T16:44:41.812Z,5.00
2023-03-11T16:47:09.999Z,5.00
2023-03-11T16:49:38.240Z,5.00
2023-03-11T16:52:08.328Z,5.00
2023-03-11T16:54:36.450Z,4.90
2023-03-11T16:57:04.787Z,4.90
2023-03-11T16:59:32.861Z,4.90
2023-03-11T17:02:01.010Z,4.90
2023-03-11T17:04:29.387Z,4.90
2023-03-11T17:06:57.541Z,4.90
2023-03-11T17:09:27.327Z,4.90
2023-03-11T17:11:55.706Z,4.80
2023-03-11T17:14:24.377Z,4.80
2023-03-11T17:16:52.814Z,4.70
2023-03-11T17:19:22.235Z,4.70
2023-03-11T17:21:50.378Z,4.70
2023-03-11T17:24:18.785Z,4.60
2023-03-11T17:26:48.472Z,4.70
2023-03-11T17:29:16.682Z,4.70
2023-03-11T17:31:44.863Z,4.60
2023-03-11T17:34:14.742Z,4.60
2023-03-11T17:36:42.845Z,4.60
2023-03-11T17:39:11.089Z,4.50
2023-03-11T17:41:39.342Z,4.50
2023-03-11T17:44:09.036Z,4.50
2023-03-11T17:46:39.107Z,4.50
2023-03-11T17:49:08.007Z,4.40
2023-03-11T17:51:36.699Z,4.40
2023-03-11T17:54:05.248Z,4.40
2023-03-11T17:56:33.852Z,4.40
2023-03-11T17:59:02.105Z,4.40
2023-03-11T18:01:31.766Z,4.40
2023-03-11T18:04:00.788Z,4.30
2023-03-11T18:06:29.104Z,4.30
2023-03-11T18:08:57.499Z,4.30
2023-03-11T18:11:29.258Z,4.30
2023-03-11T18:13:58.342Z,4.30
2023-03-11T18:16:29.014Z,4.30
2023-03-11T18:18:59.385Z,4.30
2023-03-11T18:21:29.340Z,4.30
2023-03-11T18:23:59.278Z,4.30
2023-03-11T18:26:29.944Z,4.40
2023-03-11T18:28:59.709Z,4.40
2023-03-11T18:31:29.655Z,4.40
2023-03-11T18:34:01.915Z,4.40
2023-03-11T18:36:31.924Z,4.30
2023-03-11T18:39:01.730Z,4.40
2023-03-11T18:41:33.539Z,4.30
2023-03-11T18:44:05.762Z,4.30
2023-03-11T18:46:34.229Z,4.30
2023-03-11T18:49:05.753Z,4.30
2023-03-11T18:51:34.480Z,4.30
2023-03-11T18:54:03.258Z,4.20
2023-03-11T18:56:32.213Z,4.30
2023-03-11T18:59:00.988Z,4.30
2023-03-11T19:01:29.716Z,4.30
2023-03-11T19:04:00.357Z,4.30
2023-03-11T19:06:30.440Z,4.30
2023-03-11T19:08:59.252Z,4.20
2023-03-11T19:11:29.796Z,4.20
2023-03-11T19:13:58.200Z,4.20
2023-03-11T19:16:27.303Z,4.20
2023-03-11T19:18:56.426Z,4.10
2023-03-11T19:21:25.897Z,4.10
2023-03-11T19:23:56.707Z,4.10
2023-03-11T19:26:41.471Z,4.10
2023-03-11T19:29:11.888Z,4.10
2023-03-11T19:31:40.209Z,4.10
2023-03-11T19:34:08.421Z,4.00
2023-03-11T19:36:36.526Z,3.90
2023-03-11T19:39:06.309Z,3.90
2023-03-11T19:41:34.548Z,3.90
2023-03-11T19:44:04.520Z,3.80
2023-03-11T19:46:34.866Z,3.80
2023-03-11T19:49:03.898Z,3.70
2023-03-11T19:51:46.427Z,3.70
2023-03-11T19:54:18.162Z,3.70
2023-03-11T19:56:48.076Z,3.70
2023-03-11T19:59:16.497Z,3.60
2023-03-11T20:01:44.745Z,3.60
2023-03-11T20:04:15.114Z,3.50
2023-03-11T20:06:44.327Z,3.50
2023-03-11T20:09:13.339Z,3.50
2023-03-11T20:11:43.477Z,3.40
2023-03-11T20:14:11.957Z,3.40
2023-03-11T20:16:40.817Z,3.40
2023-03-11T20:19:09.120Z,3.40
2023-03-11T20:21:40.819Z,3.30
2023-03-11T20:24:10.346Z,3.30
2023-03-11T20:26:39.088Z,3.30
2023-03-11T20:29:08.926Z,3.30
2023-03-11T20:31:37.569Z,3.30
2023-03-11T20:34:11.068Z,3.30
2023-03-11T20:36:39.691Z,3.20
2023-03-11T20:39:10.285Z,3.20
2023-03-11T20:41:40.854Z,3.20
2023-03-11T20:44:13.665Z,3.20
2023-03-11T20:46:42.548Z,3.20
2023-03-11T20:49:10.996Z,3.20
2023-03-11T20:51:41.622Z,3.20
2023-03-11T20:54:10.260Z,3.20
2023-03-11T20:56:39.030Z,3.30
2023-03-11T20:59:07.702Z,3.30
2023-03-11T21:01:37.507Z,3.30
2023-03-11T21:04:06.054Z,3.30
2023-03-11T21:06:36.343Z,3.40
2023-03-11T21:09:07.056Z,3.30
2023-03-11T21:11:35.943Z,3.30
2023-03-11T21:14:04.796Z,3.30
2023-03-11T21:16:33.368Z,3.30
2023-03-11T21:19:05.620Z,3.20
2023-03-11T21:21:34.010Z,3.20
2023-03-11T21:24:02.237Z,3.20
2023-03-11T21:26:30.595Z,3.20
2023-03-11T21:28:58.939Z,3.10
2023-03-11T21:31:29.487Z,3.10
2023-03-11T21:33:59.986Z,3.20
2023-03-11T21:36:30.617Z,3.20
2023-03-11T21:38:58.839Z,3.10
2023-03-11T21:41:28.780Z,3.10
2023-03-11T21:43:58.516Z,3.10
2023-03-11T21:46:29.636Z,3.10
2023-03-11T21:48:58.464Z,3.00
2023-03-11T21:51:27.617Z,3.00
2023-03-11T21:53:57.699Z,3.00
2023-03-11T21:56:26.085Z,3.00
2023-03-11T21:58:54.436Z,3.00
2023-03-11T22:01:23.387Z,3.00
2023-03-11T22:03:51.859Z,3.00
2023-03-11T22:06:20.204Z,3.00
2023-03-11T22:08:48.811Z,3.00
2023-03-11T22:11:20.465Z,3.00
2023-03-11T22:13:51.757Z,2.90
2023-03-11T22:16:20.975Z,3.00
2023-03-11T22:18:49.557Z,3.00
2023-03-11T22:21:18.869Z,2.90
2023-03-11T22:23:47.568Z,2.90
2023-03-11T22:26:17.510Z,3.00
2023-03-11T22:28:45.755Z,2.90
2023-03-11T22:31:17.923Z,2.80
2023-03-11T22:33:46.377Z,2.80
2023-03-11T22:36:14.655Z,2.80
2023-03-11T22:38:44.759Z,2.80
2023-03-11T22:41:13.932Z,2.80
2023-03-11T22:43:43.667Z,2.70
2023-03-11T22:46:11.918Z,2.70
2023-03-11T22:48:40.199Z,2.70
2023-03-11T22:51:08.500Z,2.70
2023-03-11T22:53:36.767Z,2.70
2023-03-11T22:56:09.978Z,2.70
2023-03-11T22:58:38.659Z,2.60
2023-03-11T23:01:08.840Z,2.60
2023-03-11T23:03:38.317Z,2.60
2023-03-11T23:06:08.782Z,2.60
2023-03-11T23:08:37.518Z,2.60
2023-03-11T23:11:07.476Z,2.60
2023-03-11T23:13:38.713Z,2.60
2023-03-11T23:16:10.692Z,2.50
2023-03-11T23:18:39.204Z,2.50
2023-03-11T23:21:15.685Z,2.50
2023-03-11T23:23:43.962Z,2.50
2023-03-11T23:26:13.058Z,2.50
2023-03-11T23:28:42.406Z,2.40
2023-03-11T23:31:13.739Z,2.40
2023-03-11T23:33:42.499Z,2.40
2023-03-11T23:36:13.681Z,2.40
2023-03-11T23:38:42.418Z,2.30
2023-03-11T23:41:12.702Z,2.30
2023-03-11T23:43:40.869Z,2.30
2023-03-11T23:46:10.349Z,2.30
2023-03-11T23:48:41.026Z,2.30
2023-03-11T23:51:09.876Z,2.30
2023-03-11T23:53:38.940Z,2.30
2023-03-11T23:56:11.047Z,2.30
2023-03-11T23:58:39.338Z,2.20
